Campanya meteocatpedra

Dades de l'estació automàtica l'Aldea

?
?
Resum diari 21:30 TU
Dades diàries de l'estació meteorològica
Temperatura mitjana 24.4 °C
Temperatura màxima 27.9 °C 9:33 TU
Temperatura mínima 21.0 °C 21:59 TU
Humitat relativa mitjana 72%
Precipitació acumulada 0.2 mm
Ratxa màxima del vent (2 m) 17.3 km/h - 166º 11:57 TU
Irradiació solar global 21.2 MJ/m2

El tram horari està expressat en Temps Universal (TU). Cal sumar una hora en horari d'hivern i dues en horari d'estiu per passar a l'hora oficial.

l'Aldea

Metadades estació meteorol´gica
Municipi L'Aldea
Comarca Baix Ebre
Altitud 62 m
Data alta 03.06.1991
Estat actual Operativa
Dades de període
Període
TU
TM
°C
TX
°C
TN
°C
HRM
%
PPT
mm
VVM (2 m)
km/h
DVM (2 m)
graus
VVX (2 m)
km/h
RS
W/m2
00:00 - 00:30 21.7 22.1 21.3 88 0.1 2.2 77 6.1 0
00:30 - 01:00 21.2 21.3 21.1 92 0.1 1.8 32 5.4 0
01:00 - 01:30 21.2 21.4 21.1 91 0.0 1.8 25 5.0 0
01:30 - 02:00 21.5 21.6 21.4 87 0.0 2.9 13 6.1 0
02:00 - 02:30 21.7 21.8 21.6 84 0.0 2.9 17 6.5 0
02:30 - 03:00 21.9 22.0 21.8 81 0.0 2.2 17 6.1 0
03:00 - 03:30 22.1 22.2 22.0 80 0.0 2.5 5 5.8 0
03:30 - 04:00 22.2 22.3 22.2 79 0.0 1.4 15 6.1 0
04:00 - 04:30 22.2 22.2 22.2 79 0.0 1.1 5 3.6 0
04:30 - 05:00 22.3 22.5 22.2 78 0.0 1.1 19 3.2 4
05:00 - 05:30 22.5 22.5 22.4 78 0.0 1.4 7 5.0 18
05:30 - 06:00 22.7 22.9 22.6 77 0.0 1.4 13 4.3 37
06:00 - 06:30 23.2 23.4 22.9 74 0.0 2.2 44 7.2 89
06:30 - 07:00 23.7 24.6 23.4 72 0.0 2.9 41 8.3 214
07:00 - 07:30 24.8 25.1 24.4 70 0.0 3.6 65 9.7 358
07:30 - 08:00 25.0 26.0 24.3 71 0.0 2.5 64 8.6 368
08:00 - 08:30 26.4 27.0 25.9 65 0.0 2.9 89 8.6 617
08:30 - 09:00 26.5 27.0 26.1 64 0.0 3.6 131 10.4 616
09:00 - 09:30 26.8 27.6 26.2 64 0.0 4.7 95 15.1 778
09:30 - 10:00 27.3 27.9 26.9 64 0.0 6.1 84 16.9 862
10:00 - 10:30 27.3 27.7 26.9 65 0.0 6.5 100 16.2 912
10:30 - 11:00 27.0 27.6 26.4 67 0.0 6.1 102 15.5 528
11:00 - 11:30 26.1 26.6 25.8 70 0.0 6.1 131 14.0 276
11:30 - 12:00 26.5 27.0 25.8 68 0.0 6.5 132 17.3 498
12:00 - 12:30 27.1 27.7 26.7 65 0.0 6.8 143 16.6 788
12:30 - 13:00 26.0 27.5 25.5 70 0.0 7.2 129 16.9 423
13:00 - 13:30 26.2 26.7 26.0 70 0.0 6.5 143 16.6 596
13:30 - 14:00 26.3 26.9 25.9 69 0.0 7.2 136 14.8 615
14:00 - 14:30 26.3 26.6 26.0 68 0.0 6.1 133 16.6 511
14:30 - 15:00 26.4 26.9 26.0 67 0.0 6.5 152 14.0 516
15:00 - 15:30 26.3 26.9 25.8 66 0.0 5.8 136 13.3 377
15:30 - 16:00 25.9 26.1 25.4 66 0.0 6.1 141 13.3 367
16:00 - 16:30 25.6 26.1 25.4 66 0.0 5.4 133 13.7 310
16:30 - 17:00 25.4 26.2 25.0 65 0.0 5.0 136 14.0 276
17:00 - 17:30 26.0 26.3 25.8 61 0.0 5.4 136 15.5 338
17:30 - 18:00 25.9 26.1 25.6 61 0.0 4.7 156 13.7 245
18:00 - 18:30 25.4 25.7 25.1 62 0.0 4.3 129 11.9 166
18:30 - 19:00 24.9 25.3 24.3 65 0.0 4.0 128 9.4 83
19:00 - 19:30 24.0 24.3 23.7 67 0.0 3.2 113 9.0 15
19:30 - 20:00 23.4 23.7 23.1 69 0.0 1.8 114 7.6 2
20:00 - 20:30 22.7 23.1 22.3 72 0.0 0.4 87 2.2 0
20:30 - 21:00 22.1 22.3 21.9 76 0.0 0.4 46 2.5 0
21:00 - 21:30 21.6 21.9 21.3 77 0.0 0.4 4 2.2 0
21:30 - 22:00 21.2 21.3 21.0 80 0.0 0.4 10 2.2 0

Les dades en taronja només han passat un control de qualitat automàtic. Resta pendent la seva validació definitiva.